createdAt,value
2023-03-12T00:02:16.312Z,99986.00
2023-03-12T00:04:50.267Z,99990.00
2023-03-12T00:07:23.778Z,99986.00
2023-03-12T00:09:58.064Z,99994.00
2023-03-12T00:12:33.031Z,99992.00
2023-03-12T00:15:09.043Z,99987.00
2023-03-12T00:17:44.129Z,99986.00
2023-03-12T00:20:20.083Z,99988.00
2023-03-12T00:22:53.967Z,99989.00
2023-03-12T00:25:27.980Z,99964.00
2023-03-12T00:28:01.550Z,99988.00
2023-03-12T00:30:35.465Z,99986.00
2023-03-12T00:33:11.381Z,99981.00
2023-03-12T00:35:45.211Z,99974.00
2023-03-12T00:38:19.230Z,99973.00
2023-03-12T00:40:52.983Z,99970.00
2023-03-12T00:43:26.757Z,99955.00
2023-03-12T00:46:01.844Z,99959.00
2023-03-12T00:48:37.142Z,99954.00
2023-03-12T00:51:12.731Z,99956.00
2023-03-12T00:53:46.752Z,99952.00
2023-03-12T00:56:20.528Z,99954.00
2023-03-12T00:58:54.226Z,99946.00
2023-03-12T01:01:29.314Z,99940.00
2023-03-12T01:04:04.898Z,99936.00
2023-03-12T01:06:38.996Z,99942.00
2023-03-12T01:09:12.733Z,99938.00
2023-03-12T01:11:46.185Z,99939.00
2023-03-12T01:14:19.899Z,99929.00
2023-03-12T01:16:53.606Z,99918.00
2023-03-12T01:19:28.656Z,99934.00
2023-03-12T01:22:02.341Z,99931.00
2023-03-12T01:24:37.802Z,99935.00
2023-03-12T01:27:12.121Z,99937.00
2023-03-12T01:29:50.081Z,99929.00
2023-03-12T01:32:23.879Z,99921.00
2023-03-12T01:35:01.710Z,99919.00
2023-03-12T01:37:35.887Z,99920.00
2023-03-12T01:40:14.831Z,99915.00
2023-03-12T01:42:54.915Z,99917.00
2023-03-12T01:46:16.107Z,99923.00
2023-03-12T01:48:57.300Z,99904.00
2023-03-12T01:51:39.144Z,99907.00
2023-03-12T01:54:19.880Z,99907.00
2023-03-12T01:56:55.953Z,99897.00
2023-03-12T01:59:37.194Z,99887.00
2023-03-12T02:02:12.423Z,99882.00
2023-03-12T02:04:48.490Z,99880.00
2023-03-12T02:07:23.595Z,99868.00
2023-03-12T02:09:57.355Z,99870.00
2023-03-12T02:12:31.199Z,99880.00
2023-03-12T02:15:05.721Z,99886.00
2023-03-12T02:17:40.767Z,99863.00
2023-03-12T02:20:22.967Z,99873.00
2023-03-12T02:23:07.668Z,99827.00
2023-03-12T02:25:47.838Z,99871.00
2023-03-12T02:28:27.011Z,99859.00
2023-03-12T02:31:07.429Z,99864.00
2023-03-12T02:33:41.864Z,99864.00
2023-03-12T02:36:15.447Z,99861.00
2023-03-12T02:38:51.079Z,99866.00
2023-03-12T02:41:31.869Z,99854.00
2023-03-12T02:44:09.455Z,99845.00
2023-03-12T02:46:46.273Z,99849.00
2023-03-12T02:49:23.185Z,99850.00
2023-03-12T02:51:57.345Z,99853.00
2023-03-12T02:54:31.996Z,99842.00
2023-03-12T02:57:06.952Z,99840.00
2023-03-12T02:59:40.548Z,99836.00
2023-03-12T03:02:14.418Z,99831.00
2023-03-12T03:04:48.236Z,99835.00
2023-03-12T03:07:22.623Z,99826.00
2023-03-12T03:09:56.217Z,99798.00
2023-03-12T03:12:31.316Z,99819.00
2023-03-12T03:15:06.454Z,99825.00
2023-03-12T03:17:40.299Z,99823.00
2023-03-12T03:20:14.995Z,99821.00
2023-03-12T03:22:48.893Z,99829.00
2023-03-12T03:25:23.807Z,99826.00
2023-03-12T03:27:59.386Z,99811.00
2023-03-12T03:30:33.972Z,99810.00
2023-03-12T03:33:07.534Z,99808.00
2023-03-12T03:35:41.418Z,99822.00
2023-03-12T03:38:15.425Z,99813.00
2023-03-12T03:40:49.357Z,99794.00
2023-03-12T03:43:25.236Z,99807.00
2023-03-12T03:46:00.053Z,99805.00
2023-03-12T03:48:35.396Z,99799.00
2023-03-12T03:51:12.024Z,99800.00
2023-03-12T03:53:46.666Z,99796.00
2023-03-12T03:56:21.284Z,99804.00
2023-03-12T03:58:56.436Z,99795.00
2023-03-12T04:01:31.394Z,99791.00
2023-03-12T04:04:05.899Z,99788.00
2023-03-12T04:06:40.052Z,99775.00
2023-03-12T04:09:13.954Z,99789.00
2023-03-12T04:11:47.852Z,99790.00
2023-03-12T04:14:23.238Z,99795.00
2023-03-12T04:16:57.136Z,99789.00
2023-03-12T04:19:30.766Z,99779.00
2023-03-12T04:22:04.396Z,99754.00
2023-03-12T04:24:38.472Z,99785.00
2023-03-12T04:27:12.215Z,99786.00
2023-03-12T04:29:47.584Z,99778.00
2023-03-12T04:32:21.876Z,99766.00
2023-03-12T04:34:55.722Z,99748.00
2023-03-12T04:37:29.322Z,99781.00
2023-03-12T04:40:07.689Z,99781.00
2023-03-12T04:42:42.293Z,99774.00
2023-03-12T04:45:17.722Z,99773.00
2023-03-12T04:47:51.587Z,99776.00
2023-03-12T04:50:25.659Z,99766.00
2023-03-12T04:52:59.281Z,99769.00
2023-03-12T04:55:32.905Z,99768.00
2023-03-12T04:58:07.136Z,99772.00
2023-03-12T05:00:43.485Z,99771.00
2023-03-12T05:03:18.464Z,99774.00
2023-03-12T05:05:52.633Z,99763.00
2023-03-12T05:08:26.568Z,99755.00
2023-03-12T05:11:00.580Z,99747.00
2023-03-12T05:13:34.259Z,99742.00
2023-03-12T05:16:10.905Z,99733.00
2023-03-12T05:18:46.536Z,99730.00
2023-03-12T05:21:22.017Z,99729.00
2023-03-12T05:23:56.038Z,99732.00
2023-03-12T05:26:33.683Z,99720.00
2023-03-12T05:29:08.771Z,99724.00
2023-03-12T05:31:45.426Z,99719.00
2023-03-12T05:34:19.419Z,99717.00
2023-03-12T05:36:54.488Z,99728.00
2023-03-12T05:39:29.054Z,99728.00
2023-03-12T05:42:03.009Z,99707.00
2023-03-12T05:44:38.978Z,99713.00
2023-03-12T05:47:14.182Z,99714.00
2023-03-12T05:49:48.399Z,99716.00
2023-03-12T05:52:22.457Z,99720.00
2023-03-12T05:54:56.637Z,99711.00
2023-03-12T05:57:30.801Z,99704.00
2023-03-12T06:00:06.899Z,99691.00
2023-03-12T06:02:42.642Z,99699.00
2023-03-12T06:05:16.289Z,99691.00
2023-03-12T06:07:50.150Z,99688.00
2023-03-12T06:10:24.132Z,99679.00
2023-03-12T06:12:59.261Z,99683.00
2023-03-12T06:15:33.417Z,99675.00
2023-03-12T06:18:08.978Z,99655.00
2023-03-12T06:20:43.012Z,99647.00
2023-03-12T06:23:16.659Z,99641.00
2023-03-12T06:25:50.332Z,99644.00
2023-03-12T06:28:25.937Z,99649.00
2023-03-12T06:31:01.218Z,99656.00
2023-03-12T06:33:37.274Z,99656.00
2023-03-12T06:36:12.780Z,99610.00
2023-03-12T06:38:46.492Z,99662.00
2023-03-12T06:41:22.024Z,99664.00
2023-03-12T06:43:56.084Z,99672.00
2023-03-12T06:46:29.610Z,99668.00
2023-03-12T06:49:04.573Z,99665.00
2023-03-12T06:51:38.862Z,99654.00
2023-03-12T06:54:12.738Z,99656.00
2023-03-12T06:56:47.725Z,99654.00
2023-03-12T06:59:22.130Z,99655.00
2023-03-12T07:01:56.037Z,99649.00
2023-03-12T07:04:32.769Z,99642.00
2023-03-12T07:07:09.012Z,99650.00
2023-03-12T07:09:42.799Z,99639.00
2023-03-12T07:12:16.413Z,99647.00
2023-03-12T07:14:49.901Z,99652.00
2023-03-12T07:17:24.664Z,99644.00
2023-03-12T07:19:59.939Z,99640.00
2023-03-12T07:22:34.420Z,99622.00
2023-03-12T07:25:09.069Z,99630.00
2023-03-12T07:27:42.853Z,99649.00
2023-03-12T07:30:16.908Z,99651.00
2023-03-12T07:32:50.643Z,99647.00
2023-03-12T07:35:26.250Z,99647.00
2023-03-12T07:38:00.343Z,99644.00
2023-03-12T07:40:35.480Z,99639.00
2023-03-12T07:43:12.277Z,99631.00
2023-03-12T07:45:47.027Z,99636.00
2023-03-12T07:48:20.992Z,99625.00
2023-03-12T07:50:56.826Z,99622.00
2023-03-12T07:53:30.751Z,99612.00
2023-03-12T07:56:05.041Z,99620.00
2023-03-12T07:58:39.477Z,99631.00
2023-03-12T08:01:13.710Z,99627.00
2023-03-12T08:03:47.634Z,99617.00
2023-03-12T08:06:23.012Z,99629.00
2023-03-12T08:08:57.321Z,99626.00
2023-03-12T08:11:33.971Z,99615.00
2023-03-12T08:14:07.832Z,99606.00
2023-03-12T08:16:43.005Z,99616.00
2023-03-12T08:19:16.976Z,99611.00
2023-03-12T08:21:53.272Z,99621.00
2023-03-12T08:24:26.809Z,99619.00
2023-03-12T08:27:01.150Z,99619.00
2023-03-12T08:29:35.101Z,99625.00
2023-03-12T08:32:12.032Z,99617.00
2023-03-12T08:34:45.759Z,99614.00
2023-03-12T08:37:21.247Z,99614.00
2023-03-12T08:39:54.769Z,99613.00
2023-03-12T08:42:28.272Z,99603.00
2023-03-12T08:45:01.933Z,99607.00
2023-03-12T08:47:35.813Z,99624.00
2023-03-12T08:50:12.183Z,99609.00
2023-03-12T08:52:47.651Z,99615.00
2023-03-12T08:55:21.588Z,99604.00
2023-03-12T08:57:57.548Z,99609.00
2023-03-12T09:00:31.674Z,99595.00
2023-03-12T09:03:05.634Z,99589.00
2023-03-12T09:05:39.299Z,99589.00
2023-03-12T09:08:14.482Z,99593.00
2023-03-12T09:10:51.393Z,99592.00
2023-03-12T09:13:27.308Z,99590.00
2023-03-12T09:16:06.661Z,99587.00
2023-03-12T09:18:40.174Z,99592.00
2023-03-12T09:21:14.284Z,99593.00
2023-03-12T09:23:49.490Z,99595.00
2023-03-12T09:26:26.098Z,99591.00
2023-03-12T09:29:00.002Z,99589.00
2023-03-12T09:31:34.785Z,99587.00
2023-03-12T09:34:08.608Z,99586.00
2023-03-12T09:36:42.371Z,99563.00
2023-03-12T09:39:17.889Z,99588.00
2023-03-12T09:41:53.478Z,99592.00
2023-03-12T09:44:37.383Z,99584.00
2023-03-12T09:47:24.378Z,99598.00
2023-03-12T09:50:05.159Z,99587.00
2023-03-12T09:52:50.674Z,99587.00
2023-03-12T09:55:26.969Z,99606.00
2023-03-12T09:58:00.841Z,99600.00
2023-03-12T10:00:37.257Z,99604.00
2023-03-12T10:03:43.271Z,99604.00
2023-03-12T10:06:21.146Z,99613.00
2023-03-12T10:09:16.128Z,99613.00
2023-03-12T10:12:00.440Z,99618.00
2023-03-12T10:14:48.480Z,99621.00
2023-03-12T10:17:45.325Z,99620.00
2023-03-12T10:20:52.747Z,99616.00
2023-03-12T10:23:46.051Z,99612.00
2023-03-12T10:26:27.069Z,99621.00
2023-03-12T10:29:12.632Z,99608.00
2023-03-12T10:31:56.746Z,99606.00
2023-03-12T10:34:40.649Z,99610.00
2023-03-12T10:37:22.748Z,99618.00
2023-03-12T10:40:00.894Z,99620.00
2023-03-12T10:42:34.842Z,99618.00
2023-03-12T10:45:27.623Z,99629.00
2023-03-12T10:48:07.201Z,99629.00
2023-03-12T10:50:42.665Z,99636.00
2023-03-12T10:53:29.285Z,99638.00
2023-03-12T10:56:09.236Z,99635.00
2023-03-12T10:58:45.071Z,99641.00
2023-03-12T11:01:25.420Z,99637.00
2023-03-12T11:04:18.289Z,99635.00
2023-03-12T11:07:23.695Z,99649.00
2023-03-12T11:10:21.324Z,99647.00
2023-03-12T11:13:22.522Z,99653.00
2023-03-12T11:15:59.834Z,99649.00
2023-03-12T11:18:36.786Z,99657.00
2023-03-12T11:21:20.834Z,99651.00
2023-03-12T11:24:12.014Z,99647.00
2023-03-12T11:26:52.557Z,99636.00
2023-03-12T11:29:31.877Z,99620.00
2023-03-12T11:32:17.173Z,99634.00
2023-03-12T11:34:53.511Z,99634.00
2023-03-12T11:37:45.630Z,99638.00
2023-03-12T11:40:34.511Z,99637.00
2023-03-12T11:43:45.338Z,99631.00
2023-03-12T11:46:44.087Z,99622.00
2023-03-12T11:49:38.039Z,99641.00
2023-03-12T11:52:24.050Z,99637.00
2023-03-12T11:55:20.407Z,99637.00
2023-03-12T11:58:22.139Z,99642.00
2023-03-12T12:01:11.226Z,99631.00
2023-03-12T12:04:30.029Z,99641.00
2023-03-12T12:07:20.193Z,99642.00
2023-03-12T12:10:04.647Z,99645.00
2023-03-12T12:12:56.035Z,99621.00
2023-03-12T12:15:40.612Z,99630.00
2023-03-12T12:18:51.030Z,99626.00
2023-03-12T12:21:46.779Z,99635.00
2023-03-12T12:24:40.011Z,99637.00
2023-03-12T12:27:22.093Z,99634.00
2023-03-12T12:30:16.362Z,99647.00
2023-03-12T12:33:15.854Z,99649.00
2023-03-12T12:35:50.168Z,99646.00
2023-03-12T12:38:33.918Z,99641.00
2023-03-12T12:41:15.313Z,99633.00
2023-03-12T12:43:52.475Z,99621.00
2023-03-12T12:46:32.063Z,99623.00
2023-03-12T12:49:13.762Z,99611.00
2023-03-12T12:51:54.696Z,99613.00
2023-03-12T12:54:36.655Z,99602.00
2023-03-12T12:57:21.430Z,99611.00
2023-03-12T13:00:20.854Z,99609.00
2023-03-12T13:02:57.804Z,99611.00
2023-03-12T13:05:47.993Z,99608.00
2023-03-12T13:09:01.431Z,99610.00
2023-03-12T13:11:46.643Z,99596.00
2023-03-12T13:14:39.971Z,99595.00
2023-03-12T13:17:32.853Z,99601.00
2023-03-12T13:20:18.597Z,99597.00
2023-03-12T13:23:09.778Z,99596.00
2023-03-12T13:25:58.647Z,99591.00
2023-03-12T13:28:42.056Z,99579.00
2023-03-12T13:31:39.187Z,99575.00
2023-03-12T13:34:46.428Z,99575.00
2023-03-12T13:37:57.880Z,99571.00
2023-03-12T13:41:08.409Z,99570.00
2023-03-12T13:43:54.698Z,99565.00
2023-03-12T13:46:43.565Z,99582.00
2023-03-12T13:49:21.111Z,99542.00
2023-03-12T13:52:02.847Z,99553.00
2023-03-12T13:54:45.147Z,99553.00
2023-03-12T13:57:38.989Z,99554.00
2023-03-12T14:00:21.191Z,99547.00
2023-03-12T14:03:03.198Z,99560.00
2023-03-12T14:05:53.661Z,99548.00
2023-03-12T14:08:50.236Z,99547.00
2023-03-12T14:11:45.949Z,99530.00
2023-03-12T14:15:05.519Z,99544.00
2023-03-12T14:17:42.654Z,99553.00
2023-03-12T14:20:23.685Z,99538.00
2023-03-12T14:23:05.354Z,99540.00
2023-03-12T14:25:44.453Z,99550.00
2023-03-12T14:28:22.751Z,99545.00
2023-03-12T14:31:02.812Z,99540.00
2023-03-12T14:33:51.872Z,99560.00
2023-03-12T14:36:33.855Z,99560.00
2023-03-12T14:39:25.359Z,99556.00
2023-03-12T14:42:05.074Z,99548.00
2023-03-12T14:44:40.837Z,99519.00
2023-03-12T14:47:22.224Z,99552.00
2023-03-12T14:49:59.371Z,99574.00
2023-03-12T14:52:38.156Z,99573.00
2023-03-12T14:55:18.781Z,99568.00
2023-03-12T14:58:06.527Z,99574.00
2023-03-12T15:00:40.281Z,99572.00
2023-03-12T15:03:18.525Z,99578.00
2023-03-12T15:05:53.635Z,99583.00
2023-03-12T15:08:30.097Z,99570.00
2023-03-12T15:11:03.797Z,99579.00
2023-03-12T15:13:41.590Z,99582.00
2023-03-12T15:16:15.614Z,99573.00
2023-03-12T15:18:50.522Z,99581.00
2023-03-12T15:21:24.774Z,99567.00
2023-03-12T15:24:00.175Z,99546.00
2023-03-12T15:26:38.224Z,99566.00
2023-03-12T15:29:30.360Z,99576.00
2023-03-12T15:32:15.431Z,99583.00
2023-03-12T15:34:50.933Z,99563.00
2023-03-12T15:37:32.565Z,99573.00
2023-03-12T15:40:21.566Z,99577.00
2023-03-12T15:43:01.933Z,99582.00
2023-03-12T15:45:40.430Z,99578.00
2023-03-12T15:48:25.180Z,99586.00
2023-03-12T15:50:59.273Z,99587.00
2023-03-12T15:53:35.887Z,99591.00
2023-03-12T15:56:25.095Z,99584.00
2023-03-12T15:59:23.982Z,99576.00
2023-03-12T16:01:58.133Z,99580.00
2023-03-12T16:04:31.866Z,99585.00
2023-03-12T16:07:14.023Z,99580.00
2023-03-12T16:09:47.690Z,99591.00
2023-03-12T16:12:23.624Z,99590.00
2023-03-12T16:14:57.641Z,99586.00
2023-03-12T16:17:31.927Z,99572.00
2023-03-12T16:20:06.424Z,99586.00
2023-03-12T16:22:40.337Z,99567.00
2023-03-12T16:25:14.322Z,99588.00
2023-03-12T16:27:53.042Z,99592.00
2023-03-12T16:30:31.357Z,99597.00
2023-03-12T16:33:09.339Z,99592.00
2023-03-12T16:35:43.564Z,99595.00
2023-03-12T16:38:17.788Z,99597.00
2023-03-12T16:40:53.920Z,99599.00
2023-03-12T16:43:31.336Z,99607.00
2023-03-12T16:46:09.670Z,99598.00
2023-03-12T16:48:43.604Z,99602.00
2023-03-12T16:51:19.303Z,99593.00
2023-03-12T16:54:07.415Z,99602.00
2023-03-12T16:56:49.190Z,99592.00
2023-03-12T16:59:32.231Z,99598.00
2023-03-12T17:02:16.784Z,99592.00
2023-03-12T17:04:51.475Z,99601.00
2023-03-12T17:07:25.225Z,99594.00
2023-03-12T17:09:58.941Z,99600.00
2023-03-12T17:12:36.950Z,99603.00
2023-03-12T17:15:18.248Z,99611.00
2023-03-12T17:17:52.269Z,99607.00
2023-03-12T17:20:26.652Z,99613.00
2023-03-12T17:23:00.379Z,99608.00
2023-03-12T17:25:37.766Z,99609.00
2023-03-12T17:28:12.873Z,99612.00
2023-03-12T17:30:48.642Z,99613.00
2023-03-12T17:33:22.438Z,99612.00
2023-03-12T17:36:01.127Z,99625.00
2023-03-12T17:38:35.400Z,99628.00
2023-03-12T17:41:23.723Z,99619.00
2023-03-12T17:44:02.171Z,99633.00
2023-03-12T17:46:40.710Z,99628.00
2023-03-12T17:49:20.828Z,99626.00
2023-03-12T17:51:54.355Z,99637.00
2023-03-12T17:54:27.959Z,99634.00
2023-03-12T17:57:01.491Z,99643.00
2023-03-12T17:59:35.138Z,99655.00
2023-03-12T18:02:14.226Z,99648.00
2023-03-12T18:04:48.039Z,99654.00
2023-03-12T18:07:21.761Z,99638.00
2023-03-12T18:09:55.555Z,99647.00
2023-03-12T18:12:29.610Z,99648.00
2023-03-12T18:15:03.365Z,99644.00
2023-03-12T18:17:38.713Z,99650.00
2023-03-12T18:20:21.308Z,99644.00
2023-03-12T18:22:59.803Z,99645.00
2023-03-12T18:25:33.467Z,99641.00
2023-03-12T18:28:08.274Z,99625.00
2023-03-12T18:30:41.955Z,99639.00
2023-03-12T18:33:18.070Z,99635.00
2023-03-12T18:35:54.219Z,99634.00
2023-03-12T18:38:28.725Z,99638.00
2023-03-12T18:41:06.843Z,99647.00
2023-03-12T18:43:41.464Z,99649.00
2023-03-12T18:46:15.360Z,99645.00
2023-03-12T18:48:51.830Z,99642.00
2023-03-12T18:51:25.532Z,99650.00
2023-03-12T18:53:59.558Z,99649.00
2023-03-12T18:56:33.246Z,99636.00
2023-03-12T18:59:06.954Z,99644.00
2023-03-12T19:01:40.846Z,99650.00
2023-03-12T19:04:19.646Z,99636.00
2023-03-12T19:06:53.193Z,99638.00
2023-03-12T19:09:27.486Z,99640.00
2023-03-12T19:12:01.119Z,99639.00
2023-03-12T19:14:35.462Z,99627.00
2023-03-12T19:17:09.037Z,99634.00
2023-03-12T19:19:44.481Z,99634.00
2023-03-12T19:22:18.422Z,99629.00
2023-03-12T19:24:52.552Z,99637.00
2023-03-12T19:27:27.249Z,99620.00
2023-03-12T19:30:02.676Z,99622.00
2023-03-12T19:32:43.706Z,99615.00
2023-03-12T19:35:19.609Z,99626.00
2023-03-12T19:37:53.688Z,99627.00
2023-03-12T19:40:27.508Z,99627.00
2023-03-12T19:43:01.716Z,99622.00
2023-03-12T19:45:38.135Z,99621.00
2023-03-12T19:48:11.876Z,99617.00
2023-03-12T19:50:46.730Z,99627.00
2023-03-12T19:53:20.936Z,99621.00
2023-03-12T19:55:54.640Z,99614.00
2023-03-12T19:58:28.654Z,99621.00
2023-03-12T20:01:02.838Z,99616.00
2023-03-12T20:03:43.397Z,99610.00
2023-03-12T20:06:18.714Z,99612.00
2023-03-12T20:08:53.471Z,99614.00
2023-03-12T20:11:26.929Z,99610.00
2023-03-12T20:14:01.000Z,99618.00
2023-03-12T20:16:34.751Z,99608.00
2023-03-12T20:19:08.584Z,99612.00
2023-03-12T20:21:44.713Z,99591.00
2023-03-12T20:24:19.900Z,99595.00
2023-03-12T20:26:53.501Z,99587.00
2023-03-12T20:29:27.380Z,99580.00
2023-03-12T20:32:01.398Z,99579.00
2023-03-12T20:34:34.892Z,99576.00
2023-03-12T20:37:10.188Z,99573.00
2023-03-12T20:39:44.647Z,99579.00
2023-03-12T20:42:18.256Z,99575.00
2023-03-12T20:44:52.028Z,99575.00
2023-03-12T20:47:25.577Z,99581.00
2023-03-12T20:49:59.781Z,99570.00
2023-03-12T20:52:35.298Z,99566.00
2023-03-12T20:55:10.157Z,99560.00
2023-03-12T20:57:43.881Z,99547.00
2023-03-12T21:00:21.895Z,99547.00
2023-03-12T21:02:55.780Z,99545.00
2023-03-12T21:05:29.990Z,99538.00
2023-03-12T21:08:06.297Z,99538.00
2023-03-12T21:10:40.558Z,99542.00
2023-03-12T21:13:14.277Z,99539.00
2023-03-12T21:15:48.374Z,99537.00
2023-03-12T21:18:22.007Z,99536.00
2023-03-12T21:20:56.123Z,99526.00
2023-03-12T21:23:31.366Z,99519.00
2023-03-12T21:26:09.408Z,99503.00
2023-03-12T21:28:43.083Z,99505.00
2023-03-12T21:31:19.087Z,99503.00
2023-03-12T21:33:56.704Z,99502.00
2023-03-12T21:36:31.630Z,99494.00
2023-03-12T21:39:07.159Z,99500.00
2023-03-12T21:41:41.195Z,99502.00
2023-03-12T21:44:16.594Z,99497.00
2023-03-12T21:46:50.602Z,99498.00
2023-03-12T21:49:24.498Z,99485.00
2023-03-12T21:51:59.181Z,99479.00
2023-03-12T21:54:36.958Z,99490.00
2023-03-12T21:57:10.430Z,99492.00
2023-03-12T21:59:44.482Z,99478.00
2023-03-12T22:02:19.268Z,99483.00
2023-03-12T22:04:53.617Z,99468.00
2023-03-12T22:07:29.607Z,99479.00
2023-03-12T22:10:05.820Z,99478.00
2023-03-12T22:12:40.174Z,99473.00
2023-03-12T22:15:13.721Z,99467.00
2023-03-12T22:17:47.614Z,99457.00
2023-03-12T22:20:21.875Z,99453.00
2023-03-12T22:22:55.430Z,99452.00
2023-03-12T22:25:30.542Z,99448.00
2023-03-12T22:28:04.111Z,99452.00
2023-03-12T22:30:41.738Z,99446.00
2023-03-12T22:33:16.026Z,99428.00
2023-03-12T22:35:50.594Z,99435.00
2023-03-12T22:38:25.459Z,99432.00
2023-03-12T22:41:00.506Z,99430.00
2023-03-12T22:43:34.195Z,99416.00
2023-03-12T22:46:07.747Z,99420.00
2023-03-12T22:48:41.675Z,99408.00
2023-03-12T22:51:16.072Z,99411.00
2023-03-12T22:53:49.928Z,99411.00
2023-03-12T22:56:25.716Z,99398.00
2023-03-12T22:58:59.145Z,99396.00
2023-03-12T23:01:32.924Z,99398.00
2023-03-12T23:04:06.946Z,99390.00
2023-03-12T23:06:40.666Z,99380.00
2023-03-12T23:09:14.304Z,99376.00
2023-03-12T23:11:49.149Z,99367.00
2023-03-12T23:14:23.106Z,99364.00
2023-03-12T23:16:57.660Z,99365.00
2023-03-12T23:19:36.410Z,99359.00
2023-03-12T23:22:10.467Z,99340.00
2023-03-12T23:24:44.197Z,99349.00
2023-03-12T23:27:19.633Z,99339.00
2023-03-12T23:29:53.472Z,99334.00
2023-03-12T23:32:27.352Z,99327.00
2023-03-12T23:35:00.996Z,99328.00
2023-03-12T23:37:34.911Z,99328.00
2023-03-12T23:40:11.286Z,99323.00
2023-03-12T23:42:46.565Z,99313.00
2023-03-12T23:45:20.561Z,99306.00
2023-03-12T23:47:54.248Z,99293.00
2023-03-12T23:50:27.822Z,99281.00
2023-03-12T23:53:02.950Z,99293.00
2023-03-12T23:55:36.792Z,99278.00
2023-03-12T23:58:12.370Z,99283.00
